Portada
METAR-TAF:

METAR-TAF

Aeroports :

Gifu, Japó

latitud: 35-23N, longitud: 136-52E, altitud: 39 m

Observació

L'informe es va fer fa 13 hores i 29 minuts, a les 21:33 UTC
Vent 1 kt amb direcció variable
Temperatura 9°C
Humitat 93%
Pressió 1014 hPa
Visibilitat 10 km o més
Escasses núvols a una alçada de 100 ft
Parcialment cobert per la boira, Boira superficial

METAR: RJNG 112133Z VRB01KT 9999 R28/0900VP1800D PRFG MIFG FEW001 09/08 Q1014 RMK 1ST001 A2994 R1700 FG BANK 1400M E-S

Hora: 20:02 (11:02 UTC)


TAF: manca

Observacions i pronòstics meteorològics de més de 4000 aeroports (METAR i TAF).

Les estacions disponibles són els punts grocs i vermells al mapa.

Posi el ratolí al punt desitjat per veure el nom de l'estació.

Feu clic per veure les observacions i els pronòstics meteorològics.

Per canviar el mapa: feu clic els botons verds amb una creu de color negre per apropar; al botó verd amb un guió per allunyar la imatge; o en les fletxes verdes per a mapes adjacents.


METAR-TAF: